TAP52 LEMH-LEIB

Flight info

Callsign TAP52
Flight time 0h 39m
Altitude 23000
Route NEVIC
Aircraft A320/M-SDE3FGHIRWY/LB1

Departure

Time 2026-04-26 16:42
Airport Menorca Airport (LEMH)

Arrival

Time 2026-04-26 17:21
Airport Ibiza Airport (LEIB)
Time Latitude Longitude Altitude Speed Heading
2026-04-26 16:16 39.86466 4.22410 304 ft 0 kts 99°
2026-04-26 16:31 39.86470 4.22383 305 ft 4 kts 102°
2026-04-26 16:31 39.86475 4.22349 303 ft 4 kts 96°
2026-04-26 16:32 39.86474 4.22321 303 ft 4 kts 34°
2026-04-26 16:32 39.86470 4.22317 303 ft 0 kts
2026-04-26 16:36 39.86472 4.22317 303 ft 1 kts
2026-04-26 16:36 39.86478 4.22319 303 ft 4 kts
2026-04-26 16:36 39.86535 4.22331 306 ft 13 kts
2026-04-26 16:37 39.86629 4.22350 306 ft 14 kts
2026-04-26 16:37 39.86719 4.22369 306 ft 13 kts
2026-04-26 16:37 39.86797 4.22386 307 ft 10 kts
2026-04-26 16:37 39.86860 4.22398 308 ft 8 kts
2026-04-26 16:38 39.86905 4.22377 309 ft 7 kts 311°
2026-04-26 16:38 39.86923 4.22305 309 ft 10 kts 284°
2026-04-26 16:38 39.86987 4.22249 310 ft 14 kts
2026-04-26 16:38 39.87095 4.22275 309 ft 18 kts
2026-04-26 16:39 39.87233 4.22303 312 ft 22 kts
2026-04-26 16:39 39.87361 4.22317 313 ft 15 kts 343°
2026-04-26 16:39 39.87389 4.22272 313 ft 0 kts 287°
2026-04-26 16:40 39.87390 4.22268 313 ft 3 kts 285°
2026-04-26 16:40 39.87378 4.22136 313 ft 17 kts 236°
2026-04-26 16:40 39.87305 4.22080 313 ft 0 kts 187°
2026-04-26 16:41 39.87296 4.22079 314 ft 6 kts 187°
2026-04-26 16:41 39.86985 4.22016 311 ft 84 kts 189°
2026-04-26 16:41 39.86190 4.21858 301 ft 144 kts 188°
2026-04-26 16:42 39.85116 4.21648 707 ft 162 kts 186°
2026-04-26 16:42 39.84004 4.21429 1488 ft 160 kts 187°
2026-04-26 16:42 39.82909 4.21224 2255 ft 158 kts 185°
2026-04-26 16:42 39.81816 4.21031 2908 ft 163 kts 186°
2026-04-26 16:43 39.80610 4.20835 3250 ft 184 kts 185°
2026-04-26 16:43 39.79280 4.20637 3689 ft 202 kts 185°
2026-04-26 16:43 39.77810 4.20437 4127 ft 224 kts 184°
2026-04-26 16:43 39.76216 4.20238 4669 ft 243 kts 184°
2026-04-26 16:44 39.74456 4.19947 5162 ft 266 kts 187°
2026-04-26 16:44 39.72576 4.19711 5935 ft 275 kts 179°
2026-04-26 16:44 39.70672 4.20021 6831 ft 278 kts 162°
2026-04-26 16:44 39.68917 4.21085 7719 ft 280 kts 143°
2026-04-26 16:45 39.67515 4.22826 8641 ft 282 kts 126°
2026-04-26 16:45 39.66574 4.25065 9534 ft 286 kts 109°
2026-04-26 16:45 39.66058 4.27578 10386 ft 290 kts 104°
2026-04-26 16:45 39.65567 4.30136 11183 ft 296 kts 104°
2026-04-26 16:46 39.65043 4.32825 11512 ft 319 kts 104°
2026-04-26 16:46 39.64484 4.35655 11970 ft 334 kts 104°
2026-04-26 16:46 39.63615 4.38471 12661 ft 341 kts 122°
2026-04-26 16:46 39.62022 4.40761 13406 ft 347 kts 143°
2026-04-26 16:47 39.59856 4.42158 14135 ft 353 kts 164°
2026-04-26 16:47 39.57403 4.42423 14778 ft 359 kts 186°
2026-04-26 16:47 39.55016 4.41448 15422 ft 365 kts 209°
2026-04-26 16:47 39.53074 4.39337 16073 ft 370 kts 232°
2026-04-26 16:48 39.51876 4.36379 16709 ft 375 kts 252°
2026-04-26 16:48 39.51088 4.33140 17365 ft 379 kts 253°
2026-04-26 16:48 39.50312 4.29860 18021 ft 383 kts 253°
2026-04-26 16:48 39.49532 4.26545 18650 ft 386 kts 253°
2026-04-26 16:49 39.48756 4.23253 19241 ft 389 kts 253°
2026-04-26 16:49 39.47959 4.19895 19826 ft 392 kts 253°
2026-04-26 16:49 39.47150 4.16516 20393 ft 395 kts 252°
2026-04-26 16:49 39.46328 4.13113 20955 ft 398 kts 252°
2026-04-26 16:50 39.45497 4.09686 21507 ft 401 kts 252°
2026-04-26 16:50 39.44662 4.06243 22052 ft 403 kts 252°
2026-04-26 16:50 39.43818 4.02760 22594 ft 406 kts 252°
2026-04-26 16:50 39.42968 3.99257 23030 ft 410 kts 252°
2026-04-26 16:51 39.42118 3.95762 23118 ft 404 kts 252°
2026-04-26 16:51 39.41283 3.92326 23130 ft 398 kts 252°
2026-04-26 16:51 39.40466 3.88966 23131 ft 396 kts 252°
2026-04-26 16:51 39.39639 3.85568 23138 ft 396 kts 252°
2026-04-26 16:52 39.38810 3.82176 23133 ft 396 kts 252°
2026-04-26 16:52 39.38248 3.79884 23130 ft 395 kts 252°
2026-04-26 16:52 39.37151 3.75400 23132 ft 395 kts 252°
2026-04-26 16:52 39.36323 3.72011 23136 ft 395 kts 252°
2026-04-26 16:53 39.35497 3.68631 23134 ft 395 kts 252°
2026-04-26 16:53 39.34667 3.65247 23140 ft 395 kts 252°
2026-04-26 16:53 39.33833 3.61867 23136 ft 395 kts 252°
2026-04-26 16:53 39.32999 3.58486 23136 ft 395 kts 252°
2026-04-26 16:54 39.32163 3.55107 23132 ft 395 kts 252°
2026-04-26 16:54 39.31327 3.51729 23132 ft 395 kts 252°
2026-04-26 16:54 39.30491 3.48352 23130 ft 395 kts 252°
2026-04-26 16:54 39.29656 3.44979 23136 ft 395 kts 252°
2026-04-26 16:55 39.28830 3.41646 23126 ft 395 kts 252°
2026-04-26 16:55 39.27989 3.38266 23126 ft 395 kts 252°
2026-04-26 16:55 39.27149 3.34886 23120 ft 396 kts 252°
2026-04-26 16:55 39.26308 3.31502 23123 ft 396 kts 252°
2026-04-26 16:56 39.24620 3.24743 23122 ft 396 kts 252°
2026-04-26 16:56 39.23771 3.21361 23124 ft 396 kts 252°
2026-04-26 16:56 39.22924 3.17978 23125 ft 396 kts 252°
2026-04-26 16:57 39.22075 3.14595 23130 ft 396 kts 252°
2026-04-26 16:57 39.21224 3.11214 23131 ft 397 kts 252°
2026-04-26 16:57 39.19522 3.04450 23134 ft 396 kts 252°
2026-04-26 16:58 39.18670 3.01070 23132 ft 396 kts 252°
2026-04-26 16:58 39.18106 2.98837 23129 ft 397 kts 252°
2026-04-26 16:58 39.16107 2.90932 23136 ft 396 kts 252°
2026-04-26 16:59 39.15252 2.87565 23132 ft 396 kts 252°
2026-04-26 16:59 39.13546 2.80862 23131 ft 396 kts 252°
2026-04-26 17:00 39.11826 2.74133 23128 ft 396 kts 251°
2026-04-26 17:00 39.10099 2.67404 23130 ft 396 kts 251°
2026-04-26 17:00 39.09234 2.64040 23129 ft 396 kts 251°
2026-04-26 17:01 39.08371 2.60676 23129 ft 396 kts 251°
2026-04-26 17:01 39.07509 2.57311 23130 ft 396 kts 251°
2026-04-26 17:01 39.06645 2.53949 23130 ft 395 kts 251°
2026-04-26 17:01 39.05782 2.50599 23128 ft 395 kts 251°
2026-04-26 17:02 39.04926 2.47287 23132 ft 395 kts 251°
2026-04-26 17:02 39.04059 2.43933 23132 ft 395 kts 251°
2026-04-26 17:02 39.03193 2.40579 23135 ft 395 kts 251°
2026-04-26 17:02 39.02327 2.37226 23130 ft 395 kts 251°
2026-04-26 17:03 39.01462 2.33873 23133 ft 395 kts 251°
2026-04-26 17:03 39.00593 2.30521 23127 ft 395 kts 251°
2026-04-26 17:03 38.99721 2.27172 23129 ft 395 kts 251°
2026-04-26 17:03 38.98847 2.23824 23129 ft 395 kts 251°
2026-04-26 17:04 38.97970 2.20473 23124 ft 395 kts 251°
2026-04-26 17:04 38.97093 2.17124 23126 ft 395 kts 251°
2026-04-26 17:04 38.96218 2.13783 23125 ft 395 kts 251°
2026-04-26 17:04 38.95342 2.10434 23123 ft 395 kts 251°
2026-04-26 17:05 38.94467 2.07084 23127 ft 405 kts 251°
2026-04-26 17:05 38.93566 2.03642 23126 ft 407 kts 251°
2026-04-26 17:05 38.92658 2.00188 23126 ft 408 kts 251°
2026-04-26 17:05 38.91748 1.96731 23126 ft 409 kts 251°
2026-04-26 17:06 38.90836 1.93273 23125 ft 409 kts 251°
2026-04-26 17:06 38.89990 1.89790 23126 ft 409 kts 253°
2026-04-26 17:06 38.89238 1.86289 22725 ft 405 kts 255°
2026-04-26 17:06 38.88549 1.82806 22019 ft 398 kts 256°
2026-04-26 17:07 38.87890 1.79372 21044 ft 394 kts 255°
2026-04-26 17:07 38.87235 1.75984 20170 ft 388 kts 255°
2026-04-26 17:07 38.86588 1.72706 19320 ft 382 kts 254°
2026-04-26 17:07 38.85924 1.69417 18467 ft 378 kts 254°
2026-04-26 17:08 38.85254 1.66173 17529 ft 374 kts 254°
2026-04-26 17:08 38.84591 1.62983 16890 ft 363 kts 254°
2026-04-26 17:08 38.83947 1.59899 16017 ft 359 kts 254°
2026-04-26 17:08 38.83290 1.56814 15288 ft 353 kts 253°
2026-04-26 17:09 38.82639 1.53857 14953 ft 337 kts 253°
2026-04-26 17:09 38.82215 1.51961 14410 ft 336 kts 253°
2026-04-26 17:09 38.81324 1.48009 12643 ft 352 kts 253°
2026-04-26 17:09 38.80634 1.44946 11178 ft 363 kts 253°
2026-04-26 17:10 38.79730 1.41891 9622 ft 371 kts 242°
2026-04-26 17:10 38.78536 1.38981 7986 ft 377 kts 241°
2026-04-26 17:10 38.77316 1.36035 6952 ft 366 kts 241°
2026-04-26 17:10 38.76148 1.33219 6106 ft 350 kts 240°
2026-04-26 17:11 38.75031 1.30527 5299 ft 336 kts 240°
2026-04-26 17:11 38.73949 1.27920 4488 ft 325 kts 241°
2026-04-26 17:11 38.72921 1.25451 4126 ft 302 kts 240°
2026-04-26 17:11 38.71980 1.23193 3998 ft 273 kts 240°
2026-04-26 17:12 38.70333 1.19240 4005 ft 243 kts 240°
2026-04-26 17:12 38.69535 1.17337 4002 ft 242 kts 240°
2026-04-26 17:13 38.68348 1.13398 3792 ft 234 kts 269°
2026-04-26 17:13 38.68658 1.11430 3740 ft 220 kts 295°
2026-04-26 17:13 38.70555 1.09085 3643 ft 170 kts 341°
2026-04-26 17:14 38.71669 1.08757 3619 ft 162 kts 360°
2026-04-26 17:14 38.73766 1.09431 3530 ft 155 kts 36°
2026-04-26 17:14 38.74565 1.10293 3488 ft 147 kts 52°
2026-04-26 17:15 38.75900 1.12144 3446 ft 140 kts 51°
2026-04-26 17:15 38.76560 1.13052 3414 ft 139 kts 51°
2026-04-26 17:15 38.77217 1.13959 3384 ft 139 kts 50°
2026-04-26 17:16 38.77812 1.14922 3351 ft 137 kts 58°
2026-04-26 17:16 38.78328 1.15957 3325 ft 138 kts 61°
2026-04-26 17:16 38.78811 1.17018 3219 ft 138 kts 63°
2026-04-26 17:16 38.79275 1.18082 3076 ft 136 kts 65°
2026-04-26 17:17 38.79729 1.19148 2918 ft 136 kts 64°
2026-04-26 17:17 38.80179 1.20217 2757 ft 137 kts 64°
2026-04-26 17:17 38.80626 1.21284 2559 ft 136 kts 64°
2026-04-26 17:17 38.81069 1.22346 2395 ft 134 kts 64°
2026-04-26 17:18 38.81501 1.23381 2218 ft 132 kts 64°
2026-04-26 17:18 38.81935 1.24424 2046 ft 132 kts 63°
2026-04-26 17:18 38.82369 1.25467 1862 ft 133 kts 63°
2026-04-26 17:18 38.82799 1.26502 1699 ft 131 kts 63°
2026-04-26 17:19 38.83652 1.28555 1338 ft 130 kts 64°
2026-04-26 17:19 38.84080 1.29584 1169 ft 133 kts 63°
2026-04-26 17:19 38.84537 1.30685 975 ft 144 kts 63°
2026-04-26 17:20 38.84992 1.31780 765 ft 134 kts 63°
2026-04-26 17:20 38.85280 1.32475 661 ft 133 kts 65°
2026-04-26 17:20 38.85857 1.33853 402 ft 129 kts 61°
2026-04-26 17:20 38.86311 1.34874 238 ft 132 kts 62°
2026-04-26 17:21 38.86710 1.35898 65 ft 129 kts 63°
2026-04-26 17:21 38.87125 1.36914 20 ft 123 kts 63°
2026-04-26 17:21 38.87433 1.37669 9 ft 55 kts 60°
2026-04-26 17:21 38.87560 1.37834 11 ft 12 kts 32°
2026-04-26 17:22 38.87638 1.37899 10 ft 7 kts 33°
2026-04-26 17:22 38.87650 1.37909 10 ft 4 kts 32°
2026-04-26 17:22 38.87711 1.37956 9 ft 12 kts 32°
2026-04-26 17:22 38.87728 1.37970 9 ft 4 kts 33°
2026-04-26 17:23 38.87770 1.38030 9 ft 0 kts 57°
2026-04-26 17:23 38.87780 1.38051 9 ft 8 kts 63°
2026-04-26 17:23 38.87817 1.38100 9 ft 8 kts 347°
2026-04-26 17:24 38.87843 1.38054 9 ft 8 kts 248°
2026-04-26 17:24 38.87812 1.37997 9 ft 8 kts 237°
2026-04-26 17:24 38.87786 1.37937 9 ft 9 kts 242°
2026-04-26 17:24 38.87747 1.37844 9 ft 15 kts 240°
2026-04-26 17:25 38.87688 1.37702 9 ft 21 kts 243°
2026-04-26 17:25 38.87646 1.37580 9 ft 13 kts 258°
2026-04-26 17:25 38.87669 1.37498 9 ft 0 kts 323°
2026-04-26 17:25 38.87686 1.37480 9 ft 6 kts 313°
2026-04-26 17:26 38.87686 1.37402 10 ft 12 kts 247°
2026-04-26 17:26 38.87648 1.37310 9 ft 15 kts 241°
2026-04-26 17:26 38.87589 1.37168 9 ft 21 kts 241°
2026-04-26 17:26 38.87542 1.37048 10 ft 8 kts 265°
2026-04-26 17:27 38.87572 1.37005 8 ft 1 kts 331°
2026-04-26 17:27 38.87587 1.36995 8 ft 0 kts 331°